Renville, Minnesota
Current Conditions -  °F | °C
As of 6:54 AM on Monday 20 Oct 2014 (Local Time) from KOVL Reporting Station
Clear Clear  
Wind Chill: 34°   Ceiling: Unl
Heat Index: 39°   Visibility: 10mi
Dew Point: 36°   Wind: 7mph
Humidity: 87%   Direction: 310°NW
Pressure: 29.99"   Gusts: NA
Location:  44.79°N, 95.21°W
Report Text: KOVL 201154Z AUTO 31006KT 10SM CLR 04/02 A2999 RMK AO2
Loading
Personal Weather Stations






























Interactive Weather Map
Tropical Storm Tracking
New forecast layout! Learn more

10-Day Weather Forecast

Advertisements
Track Severe Weather on mobile